Time;durP1;ratioP1;P1;durP2;ratioP2;P2;SDS_P1;SDS_P2;PMS_P1;PMS_P2;Temp;Humidity;BMP_temperature;BMP_pressure;BME280_temperature;BME280_humidity;BME280_pressure;Samples;Min_cycle;Max_cycle;Signal;HPM_P1;HPM_P2
2023/04/08 00:00:44;;;;;;;11.98;3.58;;;;;;;;;;5088772;28;20690;-44
2023/04/08 00:03:11;;;;;;;8.97;2.73;;;;;;;;;;5080374;28;20415;-45
2023/04/08 00:05:39;;;;;;;10.05;3.25;;;;;;;;;;5075857;28;20050;-45
2023/04/08 00:08:07;;;;;;;11.15;3.60;;;;;;;;;;5080695;28;20585;-44
2023/04/08 00:10:35;;;;;;;11.20;3.50;;;;;;;;;;5081349;28;20118;-44
2023/04/08 00:13:04;;;;;;;13.85;4.13;;;;;;;;;;5083680;28;20077;-44
2023/04/08 00:15:32;;;;;;;13.63;4.30;;;;;;;;;;5084208;28;20110;-45
2023/04/08 00:17:59;;;;;;;13.45;4.07;;;;;;;;;;5087428;28;20146;-44
2023/04/08 00:20:27;;;;;;;11.95;4.55;;;;;;;;;;5082345;28;20055;-44
2023/04/08 00:22:55;;;;;;;11.70;3.95;;;;;;;;;;5079798;28;20040;-44
2023/04/08 00:25:23;;;;;;;8.60;3.40;;;;;;;;;;5078304;28;20109;-44
2023/04/08 00:27:52;;;;;;;8.97;3.13;;;;;;;;;;5083381;28;20036;-46
2023/04/08 00:30:21;;;;;;;11.93;4.10;;;;;;;;;;5076625;28;20043;-45
2023/04/08 00:32:49;;;;;;;16.05;4.93;;;;;;;;;;5084346;28;20139;-47
2023/04/08 00:35:17;;;;;;;10.80;4.43;;;;;;;;;;5078022;28;20040;-45
2023/04/08 00:37:46;;;;;;;11.95;4.55;;;;;;;;;;5076740;28;20401;-48
2023/04/08 00:40:14;;;;;;;14.20;5.23;;;;;;;;;;5082891;28;20123;-45
2023/04/08 00:42:42;;;;;;;12.13;5.22;;;;;;;;;;5074421;28;20481;-45
2023/04/08 00:45:10;;;;;;;12.27;5.10;;;;;;;;;;5085046;28;20032;-44
2023/04/08 00:47:40;;;;;;;12.90;4.65;;;;;;;;;;5084803;28;20035;-45
2023/04/08 00:50:10;;;;;;;13.38;5.10;;;;;;;;;;5082962;28;20047;-45
2023/04/08 00:52:37;;;;;;;15.00;5.70;;;;;;;;;;5085878;28;20040;-45
2023/04/08 00:55:06;;;;;;;12.20;4.80;;;;;;;;;;5085145;28;20541;-48
2023/04/08 00:57:33;;;;;;;16.25;5.53;;;;;;;;;;5073173;28;20085;-48
2023/04/08 01:00:04;;;;;;;14.10;5.05;;;;;;;;;;5088047;28;20562;-45
2023/04/08 01:02:35;;;;;;;13.10;4.57;;;;;;;;;;5064446;28;20039;-47
2023/04/08 01:05:06;;;;;;;12.30;4.60;;;;;;;;;;5085138;28;20048;-45
2023/04/08 01:07:35;;;;;;;13.05;5.50;;;;;;;;;;5077098;28;20232;-44
2023/04/08 01:10:03;;;;;;;13.38;4.70;;;;;;;;;;5084766;28;20071;-46
2023/04/08 01:12:33;;;;;;;11.52;4.57;;;;;;;;;;5091345;28;20032;-47
2023/04/08 01:15:01;;;;;;;10.93;4.68;;;;;;;;;;5094577;28;20043;-46
2023/04/08 01:17:30;;;;;;;10.87;4.57;;;;;;;;;;5092716;28;20040;-44
2023/04/08 01:19:58;;;;;;;12.45;4.13;;;;;;;;;;5089402;28;20039;-47
2023/04/08 01:22:33;;;;;;;14.38;4.35;;;;;;;;;;5083081;28;20072;-48
2023/04/08 01:25:05;;;;;;;16.48;4.80;;;;;;;;;;5079308;28;20056;-47
2023/04/08 01:27:34;;;;;;;10.55;4.55;;;;;;;;;;5089166;28;20556;-47
2023/04/08 01:30:03;;;;;;;10.93;3.67;;;;;;;;;;5081763;28;20633;-46
2023/04/08 01:32:31;;;;;;;12.40;4.53;;;;;;;;;;5069411;28;20043;-45
2023/04/08 01:35:00;;;;;;;14.25;4.40;;;;;;;;;;5094869;28;20353;-45
2023/04/08 01:37:29;;;;;;;13.98;4.53;;;;;;;;;;5084205;28;20040;-45
2023/04/08 01:39:57;;;;;;;11.13;4.22;;;;;;;;;;5074349;28;20345;-45
2023/04/08 01:42:25;;;;;;;13.47;5.33;;;;;;;;;;5090493;28;20039;-45
2023/04/08 01:44:56;;;;;;;14.10;4.30;;;;;;;;;;5086033;28;20097;-46
2023/04/08 01:47:24;;;;;;;13.18;4.63;;;;;;;;;;5083844;28;20480;-45
2023/04/08 01:49:52;;;;;;;13.18;4.70;;;;;;;;;;5082110;28;20080;-46
2023/04/08 01:52:21;;;;;;;15.43;5.03;;;;;;;;;;5084593;28;20119;-46
2023/04/08 01:54:49;;;;;;;12.03;4.90;;;;;;;;;;5085545;28;20043;-47
2023/04/08 01:57:19;;;;;;;14.25;4.70;;;;;;;;;;5084905;28;20067;-44
2023/04/08 01:59:48;;;;;;;21.67;5.18;;;;;;;;;;5086172;28;20043;-44
2023/04/08 02:02:18;;;;;;;14.68;4.63;;;;;;;;;;5080257;28;20117;-45
2023/04/08 02:04:46;;;;;;;12.10;4.65;;;;;;;;;;5093328;28;20074;-44
2023/04/08 02:07:14;;;;;;;15.13;4.73;;;;;;;;;;5087047;28;20047;-45
2023/04/08 02:09:42;;;;;;;10.18;4.30;;;;;;;;;;5085164;28;20028;-44
2023/04/08 02:12:09;;;;;;;13.68;4.95;;;;;;;;;;5092743;28;20586;-44
2023/04/08 02:14:37;;;;;;;12.73;4.80;;;;;;;;;;5088617;28;20036;-46
2023/04/08 02:17:09;;;;;;;13.77;5.00;;;;;;;;;;5083780;28;20122;-46
2023/04/08 02:19:41;;;;;;;15.17;5.33;;;;;;;;;;5076356;28;20043;-44
2023/04/08 02:22:11;;;;;;;14.88;4.47;;;;;;;;;;5090449;28;20127;-44
2023/04/08 02:24:40;;;;;;;12.02;4.25;;;;;;;;;;5073978;28;20044;-46
2023/04/08 02:27:10;;;;;;;13.98;4.50;;;;;;;;;;5082421;28;20075;-44
2023/04/08 02:29:40;;;;;;;11.45;4.05;;;;;;;;;;5085398;28;20036;-46
2023/04/08 02:32:08;;;;;;;11.73;3.93;;;;;;;;;;5072046;28;20063;-45
2023/04/08 02:34:37;;;;;;;11.57;4.38;;;;;;;;;;5091039;28;20598;-44
2023/04/08 02:37:07;;;;;;;11.35;3.97;;;;;;;;;;5085355;28;20493;-44
2023/04/08 02:39:35;;;;;;;13.13;4.05;;;;;;;;;;5091691;28;20118;-44
2023/04/08 02:42:03;;;;;;;12.02;4.32;;;;;;;;;;5093023;28;20473;-44
2023/04/08 02:44:31;;;;;;;11.33;4.07;;;;;;;;;;5086456;28;20078;-46
2023/04/08 02:46:59;;;;;;;10.95;4.00;;;;;;;;;;5074424;28;20119;-44
2023/04/08 02:49:26;;;;;;;11.05;3.70;;;;;;;;;;5089512;28;20528;-46
2023/04/08 02:51:54;;;;;;;9.27;3.78;;;;;;;;;;5082017;28;20059;-47
2023/04/08 02:54:23;;;;;;;11.07;3.50;;;;;;;;;;5080167;28;20063;-46
2023/04/08 02:56:51;;;;;;;11.90;4.00;;;;;;;;;;5095724;28;20171;-44
2023/04/08 02:59:19;;;;;;;10.48;3.90;;;;;;;;;;5074270;28;20035;-45
2023/04/08 03:01:46;;;;;;;9.23;4.03;;;;;;;;;;5098724;27;20253;-47
2023/04/08 03:04:14;;;;;;;12.70;3.47;;;;;;;;;;5087562;28;20051;-45
2023/04/08 03:06:42;;;;;;;9.63;4.05;;;;;;;;;;5086741;28;20111;-47
2023/04/08 03:09:10;;;;;;;11.13;3.73;;;;;;;;;;5073472;28;20082;-48
2023/04/08 03:11:39;;;;;;;11.10;4.03;;;;;;;;;;5087030;28;20062;-46
2023/04/08 03:14:07;;;;;;;11.40;4.07;;;;;;;;;;5081499;28;20123;-46
2023/04/08 03:16:35;;;;;;;12.35;3.38;;;;;;;;;;5084488;28;20048;-46
2023/04/08 03:19:02;;;;;;;10.13;4.32;;;;;;;;;;5086740;28;20036;-48
2023/04/08 03:21:31;;;;;;;9.77;3.67;;;;;;;;;;5070826;28;20042;-46
2023/04/08 03:23:58;;;;;;;10.40;3.97;;;;;;;;;;5084952;28;20108;-48
2023/04/08 03:26:27;;;;;;;10.63;3.80;;;;;;;;;;5083376;28;20067;-45
2023/04/08 03:28:56;;;;;;;10.35;4.18;;;;;;;;;;5091216;28;20130;-46
2023/04/08 03:31:23;;;;;;;14.65;4.32;;;;;;;;;;5079181;28;20611;-47
2023/04/08 03:33:51;;;;;;;10.07;3.57;;;;;;;;;;5079998;28;20085;-45
2023/04/08 03:36:18;;;;;;;9.15;3.47;;;;;;;;;;5064357;28;20840;-45
2023/04/08 03:38:46;;;;;;;11.80;4.10;;;;;;;;;;5089748;28;20028;-45
2023/04/08 03:41:14;;;;;;;9.82;3.47;;;;;;;;;;5084981;28;20048;-47
2023/04/08 03:43:41;;;;;;;10.40;3.33;;;;;;;;;;5088003;28;20046;-46
2023/04/08 03:46:10;;;;;;;8.30;3.10;;;;;;;;;;5086514;28;20051;-46
2023/04/08 03:48:38;;;;;;;8.68;3.42;;;;;;;;;;5090768;28;20357;-45
2023/04/08 03:51:06;;;;;;;9.27;2.72;;;;;;;;;;5079748;28;20043;-45
2023/04/08 03:53:34;;;;;;;8.30;2.80;;;;;;;;;;5090846;28;20078;-49
2023/04/08 03:56:03;;;;;;;8.02;2.95;;;;;;;;;;5077161;28;23495;-45
2023/04/08 03:58:31;;;;;;;9.93;3.17;;;;;;;;;;5087667;28;20452;-47
2023/04/08 04:00:59;;;;;;;7.95;3.33;;;;;;;;;;5070700;28;20127;-46
2023/04/08 04:03:28;;;;;;;10.00;3.20;;;;;;;;;;5076314;28;20047;-45
2023/04/08 04:05:58;;;;;;;12.00;3.45;;;;;;;;;;5079354;28;20070;-46
2023/04/08 04:08:25;;;;;;;9.23;2.55;;;;;;;;;;5071129;28;20035;-45
2023/04/08 04:10:53;;;;;;;8.67;3.10;;;;;;;;;;5086038;28;20031;-45
2023/04/08 04:13:21;;;;;;;10.88;3.88;;;;;;;;;;5074876;28;21108;-46
2023/04/08 04:15:48;;;;;;;12.98;3.75;;;;;;;;;;5085331;28;20043;-44
2023/04/08 04:18:16;;;;;;;9.52;3.53;;;;;;;;;;5087909;28;20394;-44
2023/04/08 04:20:45;;;;;;;10.38;3.65;;;;;;;;;;5091085;28;20040;-43
2023/04/08 04:23:13;;;;;;;10.50;3.33;;;;;;;;;;5073599;28;20131;-46
2023/04/08 04:25:41;;;;;;;8.57;3.03;;;;;;;;;;5078084;28;20770;-44
2023/04/08 04:28:09;;;;;;;8.60;3.40;;;;;;;;;;5085986;28;20110;-45
2023/04/08 04:30:37;;;;;;;8.75;3.10;;;;;;;;;;5083677;28;20039;-44
2023/04/08 04:33:04;;;;;;;9.55;3.08;;;;;;;;;;5079927;28;20135;-43
2023/04/08 04:35:32;;;;;;;7.63;3.03;;;;;;;;;;5081742;28;20056;-45
2023/04/08 04:38:01;;;;;;;9.55;2.90;;;;;;;;;;5086938;28;20066;-45
2023/04/08 04:40:29;;;;;;;13.15;3.75;;;;;;;;;;5080835;28;20544;-46
2023/04/08 04:42:56;;;;;;;10.98;3.08;;;;;;;;;;5083595;28;20050;-44
2023/04/08 04:45:24;;;;;;;9.93;3.53;;;;;;;;;;5086715;28;20131;-46
2023/04/08 04:47:51;;;;;;;10.67;3.07;;;;;;;;;;5087968;28;20476;-45
2023/04/08 04:50:19;;;;;;;9.70;3.22;;;;;;;;;;5081263;28;20097;-44
2023/04/08 04:52:47;;;;;;;8.35;3.10;;;;;;;;;;5086890;28;20427;-45
2023/04/08 04:55:16;;;;;;;8.50;2.83;;;;;;;;;;5086863;28;20540;-45
2023/04/08 04:57:44;;;;;;;9.05;3.10;;;;;;;;;;5088443;28;20039;-44
2023/04/08 05:00:12;;;;;;;9.23;3.20;;;;;;;;;;5076372;28;20119;-45
2023/04/08 05:02:39;;;;;;;9.48;3.42;;;;;;;;;;5085705;28;20588;-45
2023/04/08 05:05:09;;;;;;;7.63;2.40;;;;;;;;;;5083811;28;20536;-46
2023/04/08 05:07:37;;;;;;;7.38;2.38;;;;;;;;;;5074404;28;20412;-48
2023/04/08 05:10:05;;;;;;;6.85;2.33;;;;;;;;;;5088564;28;20071;-44
2023/04/08 05:12:36;;;;;;;8.17;2.83;;;;;;;;;;5080947;28;20063;-45
2023/04/08 05:15:03;;;;;;;6.60;2.80;;;;;;;;;;5083695;28;20417;-46
2023/04/08 05:17:31;;;;;;;9.07;2.80;;;;;;;;;;5083202;28;20053;-45
2023/04/08 05:19:58;;;;;;;8.48;2.55;;;;;;;;;;5083828;28;20062;-46
2023/04/08 05:22:26;;;;;;;7.82;2.22;;;;;;;;;;5086034;28;20043;-46
2023/04/08 05:24:54;;;;;;;6.97;2.47;;;;;;;;;;5075132;28;20138;-46
2023/04/08 05:27:21;;;;;;;8.20;2.95;;;;;;;;;;5082580;28;20036;-45
2023/04/08 05:29:50;;;;;;;8.82;2.97;;;;;;;;;;5087859;28;20624;-47
2023/04/08 05:32:18;;;;;;;6.55;2.67;;;;;;;;;;5084846;28;20071;-45
2023/04/08 05:34:46;;;;;;;6.90;2.50;;;;;;;;;;5089907;28;20202;-46
2023/04/08 05:37:13;;;;;;;11.40;3.27;;;;;;;;;;5084147;28;20036;-45
2023/04/08 05:39:41;;;;;;;8.98;3.13;;;;;;;;;;5084166;28;20509;-44
2023/04/08 05:42:09;;;;;;;8.70;2.80;;;;;;;;;;5085288;28;20039;-45
2023/04/08 05:44:37;;;;;;;9.23;2.60;;;;;;;;;;5086874;28;20127;-45
2023/04/08 05:47:06;;;;;;;9.90;3.15;;;;;;;;;;5085832;28;20047;-45
2023/04/08 05:49:35;;;;;;;7.40;2.63;;;;;;;;;;5079781;28;20047;-44
2023/04/08 05:52:03;;;;;;;7.20;3.15;;;;;;;;;;5087264;28;20101;-49
2023/04/08 05:54:30;;;;;;;8.63;2.83;;;;;;;;;;5079150;28;20094;-46
2023/04/08 05:56:59;;;;;;;8.10;2.90;;;;;;;;;;5083271;28;20126;-45
2023/04/08 05:59:27;;;;;;;8.35;2.95;;;;;;;;;;5080366;28;20067;-45
2023/04/08 06:01:55;;;;;;;9.40;3.00;;;;;;;;;;5083112;28;20040;-44
2023/04/08 06:04:24;;;;;;;7.18;2.78;;;;;;;;;;5086521;28;20043;-45
2023/04/08 06:06:52;;;;;;;12.38;3.35;;;;;;;;;;5084136;28;20036;-44
2023/04/08 06:09:20;;;;;;;10.32;3.05;;;;;;;;;;5077270;28;20123;-44
2023/04/08 06:11:49;;;;;;;13.30;4.03;;;;;;;;;;5085828;28;20086;-44
2023/04/08 06:14:17;;;;;;;8.20;3.13;;;;;;;;;;5089108;28;20115;-44
2023/04/08 06:16:44;;;;;;;8.88;3.25;;;;;;;;;;5076527;28;20150;-45
2023/04/08 06:19:12;;;;;;;8.90;2.75;;;;;;;;;;5076968;28;20078;-46
2023/04/08 06:21:41;;;;;;;10.98;3.50;;;;;;;;;;5076119;28;20456;-45
2023/04/08 06:24:09;;;;;;;11.32;2.97;;;;;;;;;;5081504;28;20234;-45
2023/04/08 06:26:37;;;;;;;10.40;3.10;;;;;;;;;;5082909;28;20748;-44
2023/04/08 06:29:04;;;;;;;8.73;2.85;;;;;;;;;;5078342;28;20126;-47
2023/04/08 06:31:32;;;;;;;8.88;3.00;;;;;;;;;;5077649;28;20143;-44
2023/04/08 06:34:00;;;;;;;9.95;3.75;;;;;;;;;;5080990;28;20039;-44
2023/04/08 06:36:28;;;;;;;8.48;3.42;;;;;;;;;;5086077;28;20032;-47
2023/04/08 06:38:57;;;;;;;10.33;3.30;;;;;;;;;;5083393;28;20064;-45
2023/04/08 06:41:25;;;;;;;9.32;3.35;;;;;;;;;;5087181;28;20043;-46
2023/04/08 06:43:53;;;;;;;8.57;3.75;;;;;;;;;;5077278;28;20064;-45
2023/04/08 06:46:20;;;;;;;10.57;3.47;;;;;;;;;;5082272;28;20529;-45
2023/04/08 06:48:48;;;;;;;9.60;3.90;;;;;;;;;;5077470;28;20044;-44
2023/04/08 06:51:17;;;;;;;10.53;4.50;;;;;;;;;;5083408;28;20127;-46
2023/04/08 06:53:44;;;;;;;12.30;4.68;;;;;;;;;;5072642;28;20727;-44
2023/04/08 06:56:13;;;;;;;12.82;4.90;;;;;;;;;;5083493;28;20628;-48
2023/04/08 06:58:41;;;;;;;13.57;4.80;;;;;;;;;;5080498;28;20132;-45
2023/04/08 07:01:09;;;;;;;14.63;4.53;;;;;;;;;;5074874;28;20126;-44
2023/04/08 07:03:36;;;;;;;11.63;4.13;;;;;;;;;;5075570;28;20431;-45
2023/04/08 07:06:04;;;;;;;14.85;4.50;;;;;;;;;;5080953;28;20046;-45
2023/04/08 07:08:32;;;;;;;13.73;4.80;;;;;;;;;;5083800;28;20046;-49
2023/04/08 07:11:00;;;;;;;11.07;4.40;;;;;;;;;;5086056;28;20130;-46
2023/04/08 07:13:29;;;;;;;11.25;4.10;;;;;;;;;;5084009;28;21275;-44
2023/04/08 07:15:57;;;;;;;13.13;4.57;;;;;;;;;;5082996;28;20071;-46
2023/04/08 07:18:25;;;;;;;13.40;5.28;;;;;;;;;;5084987;28;20042;-44
2023/04/08 07:20:53;;;;;;;13.13;4.53;;;;;;;;;;5094305;28;20036;-47
2023/04/08 07:23:21;;;;;;;10.43;4.50;;;;;;;;;;5088546;27;20035;-44
2023/04/08 07:25:49;;;;;;;12.90;5.43;;;;;;;;;;5086891;28;20139;-44
2023/04/08 07:28:17;;;;;;;17.67;4.60;;;;;;;;;;5085883;28;20040;-46
2023/04/08 07:30:46;;;;;;;12.48;5.40;;;;;;;;;;5082171;28;20068;-46
2023/04/08 07:33:14;;;;;;;11.60;4.72;;;;;;;;;;5074700;28;20699;-44
2023/04/08 07:35:43;;;;;;;12.20;5.07;;;;;;;;;;5072597;28;20331;-44
2023/04/08 07:38:12;;;;;;;11.38;4.78;;;;;;;;;;5079499;28;20067;-45
2023/04/08 07:40:40;;;;;;;11.97;5.10;;;;;;;;;;5074846;28;20471;-45
2023/04/08 07:43:08;;;;;;;13.15;5.25;;;;;;;;;;5089095;28;20131;-45
2023/04/08 07:45:37;;;;;;;14.18;5.05;;;;;;;;;;5074801;28;20374;-44
2023/04/08 07:48:06;;;;;;;9.70;4.72;;;;;;;;;;5083501;28;20094;-49
2023/04/08 07:50:35;;;;;;;11.25;4.40;;;;;;;;;;5080591;28;20512;-46
2023/04/08 07:53:25;;;;;;;11.33;4.47;;;;;;;;;;5084591;28;20047;-45
2023/04/08 07:55:53;;;;;;;9.65;3.88;;;;;;;;;;5073810;28;20032;-46
2023/04/08 07:58:20;;;;;;;10.65;4.85;;;;;;;;;;5083207;28;20501;-45
2023/04/08 08:00:48;;;;;;;8.90;3.88;;;;;;;;;;5084114;28;20274;-46
2023/04/08 08:03:21;;;;;;;10.25;3.90;;;;;;;;;;5071738;28;20074;-45
2023/04/08 08:05:49;;;;;;;14.17;2.97;;;;;;;;;;5082834;28;20047;-46
2023/04/08 08:08:17;;;;;;;9.80;3.00;;;;;;;;;;5085003;28;20044;-46
2023/04/08 08:10:44;;;;;;;7.95;2.67;;;;;;;;;;5086402;28;20493;-45
2023/04/08 08:13:15;;;;;;;7.65;2.65;;;;;;;;;;5083844;28;20189;-44
2023/04/08 08:15:43;;;;;;;7.32;3.08;;;;;;;;;;5085195;28;20067;-46
2023/04/08 08:18:11;;;;;;;10.37;2.90;;;;;;;;;;5083257;28;20189;-44
2023/04/08 08:20:40;;;;;;;5.80;2.10;;;;;;;;;;5088729;28;20397;-48
2023/04/08 08:23:08;;;;;;;6.95;2.05;;;;;;;;;;5084402;28;20135;-44
2023/04/08 08:25:36;;;;;;;7.43;2.05;;;;;;;;;;5090122;28;20435;-46
2023/04/08 08:28:03;;;;;;;5.07;1.73;;;;;;;;;;5082984;28;20104;-45
2023/04/08 08:30:31;;;;;;;6.30;1.53;;;;;;;;;;5090937;28;20040;-45
2023/04/08 08:33:00;;;;;;;4.35;1.10;;;;;;;;;;5079408;28;20498;-47
2023/04/08 08:35:28;;;;;;;4.70;1.45;;;;;;;;;;5078392;28;20049;-45
2023/04/08 08:37:57;;;;;;;3.97;0.88;;;;;;;;;;5084518;28;20101;-45
2023/04/08 08:40:24;;;;;;;4.47;1.05;;;;;;;;;;5084347;28;20146;-45
2023/04/08 08:42:52;;;;;;;5.50;1.00;;;;;;;;;;5081243;28;20130;-44
2023/04/08 08:45:20;;;;;;;4.90;1.30;;;;;;;;;;5091218;28;20732;-44
2023/04/08 08:47:48;;;;;;;6.28;1.20;;;;;;;;;;5072317;28;20090;-46
2023/04/08 08:50:17;;;;;;;4.22;1.05;;;;;;;;;;5092383;28;20050;-44
2023/04/08 08:52:49;;;;;;;6.75;1.00;;;;;;;;;;5079189;28;20130;-45
2023/04/08 08:55:20;;;;;;;5.03;0.90;;;;;;;;;;5080869;28;20043;-46
2023/04/08 08:58:08;;;;;;;4.85;1.10;;;;;;;;;;5087474;28;20054;-48
2023/04/08 09:00:36;;;;;;;4.10;1.35;;;;;;;;;;5072382;28;20074;-46
2023/04/08 09:03:16;;;;;;;4.22;0.80;;;;;;;;;;5082451;28;20047;-45
2023/04/08 09:05:48;;;;;;;4.20;0.80;;;;;;;;;;5075253;28;20040;-44
2023/04/08 09:08:26;;;;;;;6.33;1.20;;;;;;;;;;5079673;28;20051;-47
2023/04/08 09:10:55;;;;;;;4.35;0.77;;;;;;;;;;5096021;28;20031;-46
2023/04/08 09:13:23;;;;;;;4.28;0.90;;;;;;;;;;5079050;28;20040;-45
2023/04/08 09:16:04;;;;;;;4.30;1.00;;;;;;;;;;4384778;27;10000623;-45
2023/04/08 09:18:32;;;;;;;4.38;1.00;;;;;;;;;;5083876;28;20051;-44
2023/04/08 09:21:01;;;;;;;6.40;0.88;;;;;;;;;;5082242;27;20044;-46
2023/04/08 09:23:38;;;;;;;6.82;1.48;;;;;;;;;;5079297;27;20040;-47
2023/04/08 09:26:11;;;;;;;6.80;1.67;;;;;;;;;;5069637;28;20075;-44
2023/04/08 09:28:40;;;;;;;5.47;1.52;;;;;;;;;;5087752;28;20039;-45
2023/04/08 09:31:18;;;;;;;6.22;1.73;;;;;;;;;;5082624;28;20043;-44
2023/04/08 09:33:47;;;;;;;9.35;1.70;;;;;;;;;;4726090;28;10000077;-47
2023/04/08 09:36:16;;;;;;;5.90;1.58;;;;;;;;;;5083572;28;20111;-47
2023/04/08 09:38:43;;;;;;;5.30;1.80;;;;;;;;;;5087488;28;20055;-46
2023/04/08 09:41:14;;;;;;;8.93;1.65;;;;;;;;;;5086259;28;20040;-46
2023/04/08 09:43:42;;;;;;;5.38;1.60;;;;;;;;;;5085400;28;20040;-45
2023/04/08 09:46:11;;;;;;;5.95;1.80;;;;;;;;;;5082788;28;20071;-46
2023/04/08 09:48:40;;;;;;;6.72;1.77;;;;;;;;;;5090756;28;20038;-47
2023/04/08 09:51:12;;;;;;;5.47;1.20;;;;;;;;;;5079724;28;20156;-45
2023/04/08 09:53:46;;;;;;;5.68;1.30;;;;;;;;;;5077008;28;20071;-47
2023/04/08 09:56:17;;;;;;;6.85;1.30;;;;;;;;;;5082003;28;20050;-44
2023/04/08 09:58:48;;;;;;;9.30;1.35;;;;;;;;;;5081059;28;20032;-45
2023/04/08 10:01:18;;;;;;;8.45;1.90;;;;;;;;;;5080579;28;20078;-47
2023/04/08 10:03:48;;;;;;;7.13;1.53;;;;;;;;;;5081236;28;20633;-46
2023/04/08 10:06:16;;;;;;;7.85;1.75;;;;;;;;;;5065223;28;20198;-45
2023/04/08 10:08:44;;;;;;;6.15;1.80;;;;;;;;;;5088135;28;20082;-44
2023/04/08 10:11:14;;;;;;;9.32;1.60;;;;;;;;;;5080303;28;20093;-45
2023/04/08 10:13:43;;;;;;;6.43;1.38;;;;;;;;;;5092670;27;20055;-44
2023/04/08 10:16:18;;;;;;;12.03;1.60;;;;;;;;;;5081570;28;20031;-46
2023/04/08 10:18:46;;;;;;;5.43;1.30;;;;;;;;;;5081446;28;20117;-45
2023/04/08 10:21:32;;;;;;;5.57;1.50;;;;;;;;;;5087814;28;20584;-46
2023/04/08 10:24:04;;;;;;;5.68;1.00;;;;;;;;;;5075145;28;20047;-46
2023/04/08 10:26:33;;;;;;;5.63;1.42;;;;;;;;;;5081905;28;20561;-46
2023/04/08 10:29:20;;;;;;;5.40;1.20;;;;;;;;;;5075057;28;20044;-44
2023/04/08 10:31:51;;;;;;;4.80;1.23;;;;;;;;;;5074828;28;20075;-45
2023/04/08 10:34:19;;;;;;;4.72;1.50;;;;;;;;;;5077885;28;20132;-46
2023/04/08 10:36:47;;;;;;;5.38;1.23;;;;;;;;;;5076327;28;20099;-47
2023/04/08 10:39:16;;;;;;;6.30;1.50;;;;;;;;;;5091353;28;20050;-45
2023/04/08 10:41:44;;;;;;;5.47;1.53;;;;;;;;;;5087476;28;20039;-46
2023/04/08 10:44:16;;;;;;;6.38;1.85;;;;;;;;;;5083828;28;20482;-46
2023/04/08 10:46:44;;;;;;;5.53;1.33;;;;;;;;;;5074109;28;20077;-45
2023/04/08 10:49:14;;;;;;;7.75;2.10;;;;;;;;;;5084662;28;20759;-45
2023/04/08 10:51:43;;;;;;;5.10;1.67;;;;;;;;;;5066824;28;20043;-46
2023/04/08 10:54:12;;;;;;;4.43;1.13;;;;;;;;;;5075939;28;20582;-46
2023/04/08 10:56:49;;;;;;;6.07;1.63;;;;;;;;;;5080221;28;20036;-46
2023/04/08 10:59:19;;;;;;;5.18;2.13;;;;;;;;;;5075570;28;20071;-44
2023/04/08 11:01:46;;;;;;;8.45;2.00;;;;;;;;;;5091438;28;20032;-46
2023/04/08 11:04:17;;;;;;;5.22;2.10;;;;;;;;;;5088797;28;20088;-44
2023/04/08 11:06:46;;;;;;;4.87;1.57;;;;;;;;;;5083412;28;20059;-46
2023/04/08 11:09:16;;;;;;;6.43;1.90;;;;;;;;;;5088330;28;20047;-44
2023/04/08 11:11:44;;;;;;;4.75;1.60;;;;;;;;;;5082094;28;20092;-44
2023/04/08 11:14:12;;;;;;;4.40;1.38;;;;;;;;;;5083786;28;20118;-46
2023/04/08 11:16:40;;;;;;;5.32;1.73;;;;;;;;;;5090508;28;20036;-45
2023/04/08 11:19:08;;;;;;;6.60;2.07;;;;;;;;;;5083961;28;20104;-45
2023/04/08 11:21:37;;;;;;;7.07;2.15;;;;;;;;;;5070779;28;20292;-44
2023/04/08 11:24:12;;;;;;;7.00;2.20;;;;;;;;;;5083503;28;20039;-44
2023/04/08 11:26:40;;;;;;;5.72;2.28;;;;;;;;;;5081150;28;20035;-44
2023/04/08 11:29:11;;;;;;;4.82;1.83;;;;;;;;;;5078599;28;20050;-44
2023/04/08 11:31:41;;;;;;;5.20;2.10;;;;;;;;;;5073135;28;20039;-47
2023/04/08 11:34:27;;;;;;;7.09;2.03;;;;;;;;;;5008963;27;10000750;-47
2023/04/08 11:36:58;;;;;;;6.30;2.08;;;;;;;;;;5086034;28;20291;-44
2023/04/08 11:39:26;;;;;;;7.18;2.20;;;;;;;;;;5073431;28;20044;-45
2023/04/08 11:41:54;;;;;;;5.95;1.67;;;;;;;;;;5083695;28;20032;-45
2023/04/08 11:44:29;;;;;;;5.10;2.20;;;;;;;;;;5076584;28;20505;-44
2023/04/08 11:46:57;;;;;;;5.25;2.08;;;;;;;;;;5089413;28;20127;-47
2023/04/08 11:49:25;;;;;;;5.20;1.90;;;;;;;;;;5085073;28;20500;-45
2023/04/08 11:51:59;;;;;;;6.30;2.08;;;;;;;;;;5085306;28;20105;-44
2023/04/08 11:54:27;;;;;;;7.55;2.17;;;;;;;;;;5075657;28;20044;-45
2023/04/08 11:56:57;;;;;;;6.97;2.30;;;;;;;;;;5082333;28;20039;-45
2023/04/08 11:59:24;;;;;;;4.40;1.80;;;;;;;;;;5089137;28;20075;-47
2023/04/08 12:01:55;;;;;;;5.35;1.75;;;;;;;;;;5078802;28;20043;-46
2023/04/08 12:04:23;;;;;;;4.28;0.80;;;;;;;;;;5081031;28;20051;-44
2023/04/08 12:06:51;;;;;;;6.05;1.33;;;;;;;;;;5080567;28;20101;-46
2023/04/08 12:09:20;;;;;;;5.07;1.10;;;;;;;;;;5086899;28;20039;-46
2023/04/08 12:11:48;;;;;;;4.60;1.10;;;;;;;;;;5069630;28;20036;-46
2023/04/08 12:14:15;;;;;;;4.00;1.10;;;;;;;;;;5078756;28;20044;-47
2023/04/08 12:16:43;;;;;;;4.35;1.13;;;;;;;;;;5090371;28;20111;-50
2023/04/08 12:19:11;;;;;;;4.15;1.25;;;;;;;;;;5072471;28;20052;-47
2023/04/08 12:21:38;;;;;;;4.90;1.37;;;;;;;;;;5080739;28;20072;-46
2023/04/08 12:24:06;;;;;;;5.32;1.30;;;;;;;;;;5082661;28;20044;-44
2023/04/08 12:26:35;;;;;;;5.68;0.93;;;;;;;;;;5082377;28;20553;-45
2023/04/08 12:29:03;;;;;;;3.50;0.90;;;;;;;;;;5080888;28;20068;-47
2023/04/08 12:31:30;;;;;;;5.72;1.20;;;;;;;;;;5084193;28;20067;-45
2023/04/08 12:33:58;;;;;;;6.40;2.00;;;;;;;;;;5074332;28;20086;-44
2023/04/08 12:36:26;;;;;;;4.70;1.35;;;;;;;;;;5083239;28;20082;-46
2023/04/08 12:38:54;;;;;;;13.82;3.15;;;;;;;;;;5083692;28;20055;-45
2023/04/08 12:41:21;;;;;;;5.45;1.50;;;;;;;;;;5086061;28;20035;-45
2023/04/08 12:43:50;;;;;;;7.28;1.70;;;;;;;;;;5071720;28;20059;-44
2023/04/08 12:46:18;;;;;;;5.37;1.10;;;;;;;;;;5073796;28;20123;-45
2023/04/08 12:48:48;;;;;;;6.13;1.02;;;;;;;;;;5082623;28;20122;-45
2023/04/08 12:51:29;;;;;;;5.13;1.40;;;;;;;;;;5080600;28;20151;-44
2023/04/08 12:53:58;;;;;;;5.70;1.50;;;;;;;;;;5078911;28;20146;-46
2023/04/08 12:56:26;;;;;;;4.88;1.10;;;;;;;;;;5083284;28;20043;-44
2023/04/08 12:58:56;;;;;;;3.90;0.90;;;;;;;;;;5078829;28;20043;-45
2023/04/08 13:01:24;;;;;;;5.30;0.95;;;;;;;;;;5080298;28;20456;-44
2023/04/08 13:03:52;;;;;;;4.55;0.88;;;;;;;;;;5068202;28;20044;-45
2023/04/08 13:06:20;;;;;;;5.93;1.38;;;;;;;;;;5083835;28;20595;-46
2023/04/08 13:08:47;;;;;;;6.03;1.08;;;;;;;;;;5085402;28;20059;-45
2023/04/08 13:11:16;;;;;;;5.27;1.17;;;;;;;;;;5084112;28;20524;-46
2023/04/08 13:13:45;;;;;;;5.13;1.38;;;;;;;;;;5081910;28;20151;-46
2023/04/08 13:16:14;;;;;;;5.47;1.17;;;;;;;;;;5087030;28;20134;-44
2023/04/08 13:18:42;;;;;;;5.45;1.40;;;;;;;;;;5077976;28;20492;-44
2023/04/08 13:21:10;;;;;;;4.20;1.00;;;;;;;;;;5083243;28;20604;-44
2023/04/08 13:23:38;;;;;;;3.50;1.00;;;;;;;;;;5085501;28;20031;-45
2023/04/08 13:26:06;;;;;;;3.88;1.00;;;;;;;;;;5077429;28;20066;-44
2023/04/08 13:28:34;;;;;;;4.15;1.10;;;;;;;;;;5082588;28;20108;-45
2023/04/08 13:31:21;;;;;;;4.45;1.30;;;;;;;;;;5087205;28;20473;-46
2023/04/08 13:33:49;;;;;;;3.97;0.90;;;;;;;;;;5064846;28;20509;-45
2023/04/08 13:36:17;;;;;;;9.73;1.70;;;;;;;;;;5081670;28;20032;-44
2023/04/08 13:38:45;;;;;;;5.75;1.77;;;;;;;;;;5081948;28;20051;-45
2023/04/08 13:41:13;;;;;;;4.78;1.70;;;;;;;;;;5077128;28;20036;-46
2023/04/08 13:43:41;;;;;;;5.15;1.52;;;;;;;;;;5077887;28;20556;-44
2023/04/08 13:46:08;;;;;;;5.53;1.58;;;;;;;;;;5073876;28;20123;-46
2023/04/08 13:48:38;;;;;;;4.23;1.20;;;;;;;;;;5088504;28;20054;-47
2023/04/08 13:51:05;;;;;;;5.90;1.65;;;;;;;;;;5066166;28;20088;-45
2023/04/08 13:53:34;;;;;;;4.63;1.25;;;;;;;;;;5092599;28;20124;-46
2023/04/08 13:56:02;;;;;;;5.97;1.35;;;;;;;;;;5085798;28;20489;-45
2023/04/08 13:58:30;;;;;;;8.32;2.00;;;;;;;;;;5092424;28;20069;-46
2023/04/08 14:00:57;;;;;;;5.30;1.80;;;;;;;;;;5087021;28;20039;-45
2023/04/08 14:03:26;;;;;;;5.85;2.00;;;;;;;;;;5086261;28;20370;-46
2023/04/08 14:05:56;;;;;;;6.80;1.77;;;;;;;;;;5078674;28;20119;-48
2023/04/08 14:08:26;;;;;;;6.70;1.80;;;;;;;;;;5072695;28;20062;-44
2023/04/08 14:10:55;;;;;;;5.00;1.85;;;;;;;;;;5092778;28;20384;-45
2023/04/08 14:13:23;;;;;;;5.23;2.00;;;;;;;;;;5088739;27;20131;-46
2023/04/08 14:15:53;;;;;;;7.38;2.13;;;;;;;;;;5087294;28;20725;-46
2023/04/08 14:18:21;;;;;;;9.27;2.38;;;;;;;;;;5091177;28;20031;-46
2023/04/08 14:20:49;;;;;;;4.85;1.73;;;;;;;;;;5089098;28;20070;-46
2023/04/08 14:23:18;;;;;;;5.78;2.08;;;;;;;;;;5086241;28;20060;-46
2023/04/08 14:25:46;;;;;;;5.03;1.90;;;;;;;;;;5085087;28;20135;-45
2023/04/08 14:28:13;;;;;;;6.00;2.10;;;;;;;;;;5084264;28;20460;-46
2023/04/08 14:30:42;;;;;;;5.55;1.88;;;;;;;;;;5089500;28;20040;-47
2023/04/08 14:33:10;;;;;;;7.95;1.98;;;;;;;;;;5093751;28;20597;-46
2023/04/08 14:35:38;;;;;;;5.75;2.08;;;;;;;;;;5080031;28;20050;-46
2023/04/08 14:38:06;;;;;;;5.87;1.80;;;;;;;;;;5089780;28;20083;-47
2023/04/08 14:40:36;;;;;;;5.82;2.20;;;;;;;;;;5083888;28;20028;-45
2023/04/08 14:43:04;;;;;;;5.65;1.90;;;;;;;;;;5089066;28;20050;-46
2023/04/08 14:45:32;;;;;;;6.25;2.17;;;;;;;;;;5087353;28;20179;-45
2023/04/08 14:48:00;;;;;;;6.28;1.80;;;;;;;;;;5090355;28;20048;-48